This is the latest recevied weather packets stored in our database for station/object SQ2CDE-4. If no packets are shown the sender has not sent any weather packets the latest 10 day(s).
| Time | Temp. | Humidity | Pressure | Rain* | Wind** | Luminosity | Snow |
|---|---|---|---|---|---|---|---|
| 1777583014 | 7.22° C | 70% | 1027 hPa | - | - | - | - |
| 1777579999 | 7.22° C | 70% | 1027 hPa | - | - | - | - |
| 1777566131 | 15° C | 27% | 1027 hPa | - | - | - | - |
| 1777564323 | 15° C | 44% | 1027 hPa | - | - | - | - |
| 1777562515 | 16.11° C | 36% | 1027 hPa | - | - | - | - |
| 1777561310 | 16.11° C | 39% | 1027 hPa | - | - | - | - |
| 1777555884 | 16.11° C | 39% | 1027 hPa | - | - | - | - |
| 1777554679 | 16.11° C | 39% | 1027 hPa | - | - | - | - |
| 1777552268 | 13.89° C | 41% | 1028 hPa | - | - | - | - |
| 1777549860 | 15° C | 39% | 1028 hPa | - | - | - | - |
| 1777548657 | 15° C | 36% | 1028 hPa | - | - | - | - |
| 1777548056 | 15° C | 36% | 1028 hPa | - | - | - | - |
| 1777546852 | 13.89° C | 36% | 1028 hPa | - | - | - | - |
| 1777546249 | 13.89° C | 36% | 1028 hPa | - | - | - | - |
| 1777545043 | 13.89° C | 33% | 1028 hPa | - | - | - | - |
| 1777544442 | 13.89° C | 33% | 1028 hPa | - | - | - | - |
| 1777543839 | 13.89° C | 33% | 1028 hPa | - | - | - | - |
| 1777543236 | 13.89° C | 36% | 1029 hPa | - | - | - | - |
| 1777541433 | 12.22° C | 38% | 1029 hPa | - | - | - | - |
| 1777540832 | 12.22° C | 38% | 1029 hPa | - | - | - | - |
| 1777540232 | 12.22° C | 38% | 1029 hPa | - | - | - | - |
| 1777539631 | 11.11° C | 37% | 1029 hPa | - | - | - | - |
| 1777539030 | 11.11° C | 37% | 1029 hPa | - | - | - | - |
| 1777537825 | 10° C | 40% | 1029 hPa | - | - | - | - |
| 1777536622 | 10° C | 40% | 1029 hPa | - | - | - | - |
* Rain since midnight (hover to see other rain measurements)
** Current wind speed in m/s (hover to see current wind gust speed)